createdAt,value
2018-10-03T00:00:19.196Z,12.50
2018-10-03T00:02:46.780Z,12.50
2018-10-03T00:05:14.370Z,12.50
2018-10-03T00:07:41.875Z,12.40
2018-10-03T00:10:09.409Z,12.40
2018-10-03T00:12:37.043Z,12.30
2018-10-03T00:15:04.603Z,12.30
2018-10-03T00:17:32.140Z,12.40
2018-10-03T00:19:59.762Z,12.50
2018-10-03T00:22:27.270Z,12.50
2018-10-03T00:24:54.826Z,12.50
2018-10-03T00:27:22.318Z,12.50
2018-10-03T00:29:49.901Z,12.50
2018-10-03T00:32:17.502Z,12.50
2018-10-03T00:34:45.052Z,12.40
2018-10-03T00:37:12.618Z,12.40
2018-10-03T00:39:40.143Z,12.30
2018-10-03T00:42:07.620Z,12.40
2018-10-03T00:44:35.172Z,12.50
2018-10-03T00:47:02.701Z,12.50
2018-10-03T00:49:30.449Z,12.50
2018-10-03T00:51:57.940Z,12.40
2018-10-03T00:54:25.458Z,12.40
2018-10-03T00:56:52.960Z,12.20
2018-10-03T00:59:20.483Z,12.30
2018-10-03T01:01:48.023Z,12.20
2018-10-03T01:04:15.556Z,12.30
2018-10-03T01:06:43.079Z,12.40
2018-10-03T01:09:10.679Z,12.40
2018-10-03T01:11:38.197Z,12.50
2018-10-03T01:14:05.994Z,12.50
2018-10-03T01:16:33.531Z,12.50
2018-10-03T01:19:01.094Z,12.50
2018-10-03T01:21:28.630Z,12.50
2018-10-03T01:23:56.295Z,12.40
2018-10-03T01:26:23.840Z,12.40
2018-10-03T01:28:51.373Z,12.40
2018-10-03T01:31:18.910Z,12.40
2018-10-03T01:33:46.479Z,12.50
2018-10-03T01:36:14.058Z,12.30
2018-10-03T01:38:41.638Z,12.30
2018-10-03T01:41:09.151Z,12.30
2018-10-03T01:43:36.680Z,12.20
2018-10-03T01:46:04.203Z,12.30
2018-10-03T01:48:31.731Z,12.10
2018-10-03T01:50:59.279Z,12.10
2018-10-03T01:53:26.806Z,12.20
2018-10-03T01:55:54.346Z,12.30
2018-10-03T01:58:21.918Z,12.20
2018-10-03T02:00:49.463Z,12.10
2018-10-03T02:03:17.014Z,12.20
2018-10-03T02:05:44.551Z,12.10
2018-10-03T02:08:12.133Z,12.10
2018-10-03T02:10:39.897Z,12.00
2018-10-03T02:13:07.535Z,12.10
2018-10-03T02:15:35.079Z,12.10
2018-10-03T02:18:02.625Z,12.10
2018-10-03T02:20:30.186Z,12.10
2018-10-03T02:22:57.775Z,12.00
2018-10-03T02:25:25.299Z,12.00
2018-10-03T02:27:52.831Z,12.10
2018-10-03T02:30:20.345Z,12.10
2018-10-03T02:32:47.879Z,12.10
2018-10-03T02:35:15.398Z,12.20
2018-10-03T02:37:42.923Z,12.20
2018-10-03T02:40:10.515Z,12.20
2018-10-03T02:42:38.092Z,12.20
2018-10-03T02:45:05.749Z,12.20
2018-10-03T02:47:33.331Z,12.30
2018-10-03T02:50:00.928Z,12.30
2018-10-03T02:52:28.498Z,12.20
2018-10-03T02:54:56.040Z,12.20
2018-10-03T02:57:23.549Z,12.10
2018-10-03T02:59:51.077Z,12.10
2018-10-03T03:02:18.574Z,12.10
2018-10-03T03:04:46.132Z,12.10
2018-10-03T03:07:13.638Z,12.10
2018-10-03T03:09:41.146Z,12.10
2018-10-03T03:12:08.658Z,12.10
2018-10-03T03:14:36.451Z,12.10
2018-10-03T03:17:03.929Z,12.00
2018-10-03T03:19:31.535Z,12.10
2018-10-03T03:21:59.079Z,12.00
2018-10-03T03:24:26.615Z,12.00
2018-10-03T03:26:54.144Z,12.00
2018-10-03T03:29:21.742Z,12.00
2018-10-03T03:31:49.259Z,12.00
2018-10-03T03:34:16.751Z,12.00
2018-10-03T03:36:44.247Z,12.00
2018-10-03T03:39:11.780Z,12.00
2018-10-03T03:41:39.303Z,11.90
2018-10-03T03:44:06.842Z,11.80
2018-10-03T03:46:34.381Z,11.80
2018-10-03T03:49:01.968Z,11.70
2018-10-03T03:51:29.519Z,11.80
2018-10-03T03:53:57.182Z,11.90
2018-10-03T03:56:24.756Z,11.90
2018-10-03T03:58:52.336Z,12.00
2018-10-03T04:01:19.840Z,12.00
2018-10-03T04:03:47.454Z,11.90
2018-10-03T04:06:14.994Z,12.10
2018-10-03T04:08:42.495Z,12.10
2018-10-03T04:11:10.098Z,12.10
2018-10-03T04:13:37.651Z,12.10
2018-10-03T04:16:05.214Z,12.00
2018-10-03T04:18:32.695Z,11.90
2018-10-03T04:21:00.330Z,12.00
2018-10-03T04:23:27.917Z,11.90
2018-10-03T04:25:55.519Z,11.90
2018-10-03T04:28:23.064Z,11.90
2018-10-03T04:30:50.591Z,11.90
2018-10-03T04:33:18.090Z,11.90
2018-10-03T04:35:45.631Z,11.90
2018-10-03T04:38:13.136Z,11.90
2018-10-03T04:40:40.754Z,12.00
2018-10-03T04:43:08.320Z,12.00
2018-10-03T04:45:35.855Z,12.00
2018-10-03T04:48:03.394Z,12.10
2018-10-03T04:50:30.956Z,12.10
2018-10-03T04:52:58.518Z,12.10
2018-10-03T04:55:26.048Z,12.10
2018-10-03T04:57:53.562Z,12.10
2018-10-03T05:00:21.112Z,12.10
2018-10-03T05:02:48.693Z,12.20
2018-10-03T05:05:16.282Z,12.10
2018-10-03T05:07:43.885Z,12.10
2018-10-03T05:10:11.403Z,12.00
2018-10-03T05:12:39.038Z,12.00
2018-10-03T05:15:06.590Z,12.00
2018-10-03T05:17:34.121Z,12.00
2018-10-03T05:20:01.761Z,12.00
2018-10-03T05:22:29.311Z,12.20
2018-10-03T05:24:56.888Z,12.20
2018-10-03T05:27:24.446Z,12.10
2018-10-03T05:29:52.017Z,12.10
2018-10-03T05:32:19.528Z,12.20
2018-10-03T05:34:47.124Z,12.20
2018-10-03T05:37:14.862Z,12.00
2018-10-03T05:39:42.505Z,12.00
2018-10-03T05:42:09.996Z,12.00
2018-10-03T05:44:37.600Z,11.80
2018-10-03T05:47:05.551Z,11.90
2018-10-03T05:49:33.246Z,11.90
2018-10-03T05:52:00.826Z,11.80
2018-10-03T05:54:28.528Z,11.90
2018-10-03T05:56:56.047Z,11.90
2018-10-03T05:59:23.601Z,11.90
2018-10-03T06:01:51.337Z,11.90
2018-10-03T06:04:18.849Z,12.00
2018-10-03T06:06:46.359Z,12.00
2018-10-03T06:09:13.875Z,12.10
2018-10-03T06:11:42.244Z,12.00
2018-10-03T06:14:09.978Z,11.90
2018-10-03T06:16:37.575Z,11.80
2018-10-03T06:19:05.227Z,11.70
2018-10-03T06:21:33.265Z,11.80
2018-10-03T06:24:00.834Z,11.80
2018-10-03T06:26:28.351Z,11.90
2018-10-03T06:28:55.973Z,11.90
2018-10-03T06:31:23.477Z,11.90
2018-10-03T06:33:51.009Z,12.00
2018-10-03T06:36:18.607Z,11.90
2018-10-03T06:38:46.180Z,11.90
2018-10-03T06:41:13.757Z,11.90
2018-10-03T06:43:41.341Z,11.90
2018-10-03T06:46:09.301Z,12.00
2018-10-03T06:48:36.795Z,12.00
2018-10-03T06:51:04.423Z,12.00
2018-10-03T06:53:31.946Z,12.00
2018-10-03T06:55:59.533Z,12.10
2018-10-03T06:58:27.055Z,12.30
2018-10-03T07:00:54.599Z,12.30
2018-10-03T07:03:23.064Z,12.40
2018-10-03T07:05:50.744Z,12.50
2018-10-03T07:08:18.227Z,12.60
2018-10-03T07:10:45.811Z,12.60
2018-10-03T07:13:13.428Z,12.60
2018-10-03T07:15:40.946Z,12.70
2018-10-03T07:18:08.564Z,12.70
2018-10-03T07:20:36.455Z,12.70
2018-10-03T07:23:04.089Z,12.60
2018-10-03T07:25:31.673Z,12.50
2018-10-03T07:27:59.632Z,12.60
2018-10-03T07:30:27.240Z,12.60
2018-10-03T07:32:54.850Z,12.70
2018-10-03T07:35:22.419Z,12.80
2018-10-03T07:37:49.999Z,12.80
2018-10-03T07:40:17.581Z,12.80
2018-10-03T07:42:45.185Z,12.70
2018-10-03T07:45:12.768Z,12.70
2018-10-03T07:47:40.347Z,12.60
2018-10-03T07:50:08.421Z,12.70
2018-10-03T07:52:36.016Z,12.80
2018-10-03T07:55:03.608Z,12.80
2018-10-03T07:57:31.170Z,12.90
2018-10-03T07:59:58.752Z,12.90
2018-10-03T08:02:26.351Z,13.10
2018-10-03T08:04:53.872Z,13.20
2018-10-03T08:07:21.467Z,13.20
2018-10-03T08:09:49.094Z,13.40
2018-10-03T08:12:16.679Z,13.50
2018-10-03T08:14:44.276Z,13.50
2018-10-03T08:17:11.957Z,13.60
2018-10-03T08:19:39.561Z,13.60
2018-10-03T08:22:07.212Z,13.80
2018-10-03T08:24:34.897Z,14.00
2018-10-03T08:27:02.488Z,14.00
2018-10-03T08:29:30.079Z,14.00
2018-10-03T08:31:57.639Z,14.00
2018-10-03T08:34:25.261Z,14.10
2018-10-03T08:36:52.842Z,14.30
2018-10-03T08:39:20.862Z,14.30
2018-10-03T08:41:48.482Z,14.40
2018-10-03T08:44:16.050Z,14.60
2018-10-03T08:46:43.662Z,14.70
2018-10-03T08:49:11.232Z,14.70
2018-10-03T08:51:38.848Z,14.60
2018-10-03T08:54:06.489Z,14.50
2018-10-03T08:56:34.242Z,14.40
2018-10-03T08:59:01.795Z,14.40
2018-10-03T09:01:29.467Z,14.50
2018-10-03T09:03:57.069Z,14.30
2018-10-03T09:06:24.722Z,14.40
2018-10-03T09:08:52.741Z,14.80
2018-10-03T09:11:20.418Z,15.10
2018-10-03T09:13:48.099Z,15.40
2018-10-03T09:16:15.780Z,15.30
2018-10-03T09:18:43.363Z,15.10
2018-10-03T09:21:11.064Z,14.90
2018-10-03T09:23:38.731Z,14.90
2018-10-03T09:26:06.473Z,14.90
2018-10-03T09:28:34.194Z,15.10
2018-10-03T09:31:02.066Z,15.30
2018-10-03T09:33:29.714Z,15.20
2018-10-03T09:35:57.353Z,15.30
2018-10-03T09:38:24.987Z,15.40
2018-10-03T09:40:52.556Z,15.60
2018-10-03T09:43:20.199Z,15.30
2018-10-03T09:45:47.802Z,15.10
2018-10-03T09:48:15.480Z,15.00
2018-10-03T09:50:43.043Z,15.00
2018-10-03T09:53:10.673Z,15.10
2018-10-03T09:55:38.347Z,15.00
2018-10-03T09:58:06.016Z,15.00
2018-10-03T10:00:39.143Z,14.90
2018-10-03T10:03:06.921Z,14.80
2018-10-03T10:05:34.550Z,14.90
2018-10-03T10:08:02.189Z,14.80
2018-10-03T10:10:29.829Z,14.70
2018-10-03T10:12:57.443Z,14.70
2018-10-03T10:15:25.147Z,14.70
2018-10-03T10:17:52.873Z,15.00
2018-10-03T10:20:20.454Z,15.30
2018-10-03T10:22:48.057Z,16.00
2018-10-03T10:25:15.761Z,17.10
2018-10-03T10:27:43.429Z,17.70
2018-10-03T10:30:11.023Z,17.80
2018-10-03T10:32:39.037Z,18.00
2018-10-03T10:35:06.734Z,18.10
2018-10-03T10:37:34.521Z,18.30
2018-10-03T10:40:02.176Z,18.30
2018-10-03T10:42:29.809Z,18.30
2018-10-03T10:44:57.536Z,18.20
2018-10-03T10:47:25.252Z,18.00
2018-10-03T10:49:52.851Z,18.00
2018-10-03T10:52:20.517Z,18.40
2018-10-03T10:54:48.136Z,18.80
2018-10-03T10:57:15.816Z,18.70
2018-10-03T10:59:43.438Z,18.70
2018-10-03T11:02:11.065Z,18.80
2018-10-03T11:04:38.721Z,19.10
2018-10-03T11:07:06.553Z,19.20
2018-10-03T11:09:34.260Z,19.20
2018-10-03T11:12:01.914Z,19.20
2018-10-03T11:14:29.585Z,19.30
2018-10-03T11:16:57.361Z,20.00
2018-10-03T11:19:24.912Z,21.30
2018-10-03T11:21:52.492Z,22.40
2018-10-03T11:24:20.295Z,23.70
2018-10-03T11:26:47.922Z,24.50
2018-10-03T11:29:15.596Z,25.10
2018-10-03T11:31:43.197Z,26.90
2018-10-03T11:34:10.777Z,28.10
2018-10-03T11:36:38.416Z,28.60
2018-10-03T11:39:07.605Z,28.50
2018-10-03T11:41:35.473Z,28.20
2018-10-03T11:44:03.086Z,27.50
2018-10-03T11:46:30.652Z,27.00
2018-10-03T11:48:58.189Z,26.30
2018-10-03T11:51:25.913Z,25.50
2018-10-03T11:53:53.525Z,24.90
2018-10-03T11:56:21.160Z,24.30
2018-10-03T11:58:48.836Z,23.50
2018-10-03T12:01:16.481Z,23.20
2018-10-03T12:03:44.100Z,23.20
2018-10-03T12:06:11.758Z,23.30
2018-10-03T12:08:39.315Z,23.10
2018-10-03T12:11:07.156Z,23.00
2018-10-03T12:13:34.813Z,22.70
2018-10-03T12:16:02.588Z,22.80
2018-10-03T12:18:30.766Z,22.70
2018-10-03T12:20:58.338Z,22.50
2018-10-03T12:23:25.966Z,22.20
2018-10-03T12:25:53.643Z,21.90
2018-10-03T12:28:21.309Z,21.60
2018-10-03T12:30:49.063Z,21.30
2018-10-03T12:33:16.771Z,21.20
2018-10-03T12:35:44.354Z,21.10
2018-10-03T12:38:12.008Z,20.90
2018-10-03T12:40:39.680Z,20.60
2018-10-03T12:43:07.285Z,20.40
2018-10-03T12:45:34.901Z,20.20
2018-10-03T12:48:02.596Z,20.10
2018-10-03T12:50:30.207Z,20.30
2018-10-03T12:52:57.865Z,20.50
2018-10-03T12:55:25.404Z,20.60
2018-10-03T12:57:53.050Z,20.60
2018-10-03T13:00:20.703Z,20.70
2018-10-03T13:02:48.280Z,21.00
2018-10-03T13:05:15.889Z,21.80
2018-10-03T13:07:43.558Z,22.80
2018-10-03T13:10:11.143Z,22.90
2018-10-03T13:12:38.806Z,22.30
2018-10-03T13:15:06.445Z,21.60
2018-10-03T13:17:34.054Z,21.10
2018-10-03T13:20:01.640Z,20.60
2018-10-03T13:22:29.301Z,20.20
2018-10-03T13:24:56.928Z,19.90
2018-10-03T13:27:24.560Z,19.70
2018-10-03T13:29:52.199Z,19.50
2018-10-03T13:32:19.827Z,19.30
2018-10-03T13:34:47.416Z,19.20
2018-10-03T13:37:15.081Z,19.10
2018-10-03T13:39:42.678Z,19.10
2018-10-03T13:42:10.294Z,19.00
2018-10-03T13:44:37.852Z,18.90
2018-10-03T13:47:05.323Z,18.90
2018-10-03T13:49:32.955Z,18.90
2018-10-03T13:52:00.537Z,18.90
2018-10-03T13:54:28.238Z,18.90
2018-10-03T13:56:56.004Z,19.00
2018-10-03T13:59:23.629Z,19.00
2018-10-03T14:01:51.244Z,19.10
2018-10-03T14:04:18.838Z,19.20
2018-10-03T14:06:46.374Z,19.10
2018-10-03T14:09:13.989Z,19.10
2018-10-03T14:11:41.529Z,19.00
2018-10-03T14:14:09.158Z,19.00
2018-10-03T14:16:36.758Z,18.90
2018-10-03T14:19:04.503Z,18.80
2018-10-03T14:21:32.178Z,18.80
2018-10-03T14:23:59.937Z,18.70
2018-10-03T14:26:27.577Z,18.70
2018-10-03T14:28:55.554Z,18.70
2018-10-03T14:31:23.340Z,18.50
2018-10-03T14:33:51.027Z,18.50
2018-10-03T14:36:18.669Z,18.50
2018-10-03T14:38:46.340Z,18.50
2018-10-03T14:41:13.973Z,18.50
2018-10-03T14:43:41.868Z,18.50
2018-10-03T14:46:09.599Z,18.40
2018-10-03T14:48:37.603Z,18.50
2018-10-03T14:51:05.692Z,18.40
2018-10-03T14:53:33.477Z,18.50
2018-10-03T14:56:01.332Z,18.40
2018-10-03T14:58:29.040Z,18.40
2018-10-03T15:00:56.992Z,18.30
2018-10-03T15:03:24.933Z,18.30
2018-10-03T15:05:52.799Z,18.20
2018-10-03T15:08:20.610Z,18.20
2018-10-03T15:10:48.392Z,18.10
2018-10-03T15:13:16.069Z,18.10
2018-10-03T15:15:43.895Z,18.00
2018-10-03T15:18:11.780Z,18.00
2018-10-03T15:20:39.869Z,18.10
2018-10-03T15:23:08.007Z,18.00
2018-10-03T15:25:35.934Z,18.10
2018-10-03T15:28:03.790Z,18.10
2018-10-03T15:30:31.524Z,18.10
2018-10-03T15:32:59.320Z,18.10
2018-10-03T15:35:27.300Z,18.10
2018-10-03T15:37:55.231Z,18.10
2018-10-03T15:40:22.899Z,18.20
2018-10-03T15:42:50.725Z,18.10
2018-10-03T15:45:18.607Z,18.10
2018-10-03T15:47:46.709Z,18.10
2018-10-03T15:50:14.586Z,18.10
2018-10-03T15:52:42.416Z,18.10
2018-10-03T15:55:10.240Z,18.10
2018-10-03T15:57:37.985Z,18.00
2018-10-03T16:00:06.055Z,18.00
2018-10-03T16:02:33.739Z,17.90
2018-10-03T16:05:01.391Z,17.90
2018-10-03T16:07:29.098Z,17.90
2018-10-03T16:09:56.676Z,17.80
2018-10-03T16:12:24.434Z,17.80
2018-10-03T16:14:52.131Z,17.70
2018-10-03T16:17:19.687Z,17.60
2018-10-03T16:19:47.389Z,17.60
2018-10-03T16:22:15.024Z,17.50
2018-10-03T16:24:42.691Z,17.50
2018-10-03T16:27:10.502Z,17.40
2018-10-03T16:29:38.199Z,17.30
2018-10-03T16:32:05.989Z,17.20
2018-10-03T16:34:33.642Z,17.20
2018-10-03T16:37:01.363Z,17.10
2018-10-03T16:39:29.005Z,17.00
2018-10-03T16:41:56.663Z,16.90
2018-10-03T16:44:24.304Z,16.90
2018-10-03T16:46:51.961Z,16.70
2018-10-03T16:49:19.637Z,16.70
2018-10-03T16:51:47.475Z,16.60
2018-10-03T16:54:15.206Z,16.50
2018-10-03T16:56:42.831Z,16.50
2018-10-03T16:59:10.542Z,16.40
2018-10-03T17:01:38.348Z,16.40
2018-10-03T17:04:06.170Z,16.30
2018-10-03T17:06:34.205Z,16.20
2018-10-03T17:09:01.892Z,16.20
2018-10-03T17:11:29.615Z,16.10
2018-10-03T17:14:17.198Z,16.10
2018-10-03T17:16:45.169Z,16.00
2018-10-03T17:19:13.064Z,15.90
2018-10-03T17:21:40.918Z,15.80
2018-10-03T17:24:08.783Z,15.80
2018-10-03T17:26:36.481Z,15.80
2018-10-03T17:29:04.331Z,15.70
2018-10-03T17:31:32.304Z,15.60
2018-10-03T17:34:00.210Z,15.50
2018-10-03T17:36:28.393Z,15.50
2018-10-03T17:38:56.196Z,15.40
2018-10-03T17:41:24.091Z,15.30
2018-10-03T17:43:52.012Z,15.30
2018-10-03T17:46:19.877Z,15.20
2018-10-03T17:48:47.715Z,15.10
2018-10-03T17:51:15.681Z,15.00
2018-10-03T17:53:43.680Z,15.00
2018-10-03T17:56:11.649Z,14.90
2018-10-03T17:58:39.727Z,14.90
2018-10-03T18:01:07.685Z,14.80
2018-10-03T18:03:35.585Z,14.80
2018-10-03T18:06:03.700Z,14.70
2018-10-03T18:08:31.700Z,14.60
2018-10-03T18:10:59.746Z,14.60
2018-10-03T18:13:27.863Z,14.50
2018-10-03T18:15:55.907Z,14.50
2018-10-03T18:18:23.974Z,14.40
2018-10-03T18:20:51.873Z,14.30
2018-10-03T18:23:19.818Z,14.30
2018-10-03T18:25:47.879Z,14.20
2018-10-03T18:28:15.921Z,14.20
2018-10-03T18:30:44.069Z,14.10
2018-10-03T18:33:12.198Z,14.10
2018-10-03T18:35:40.121Z,14.00
2018-10-03T18:38:08.006Z,14.00
2018-10-03T18:40:36.015Z,14.00
2018-10-03T18:43:03.995Z,14.00
2018-10-03T18:45:31.865Z,14.00
2018-10-03T18:47:59.748Z,13.90
2018-10-03T18:50:28.540Z,13.80
2018-10-03T18:52:56.561Z,13.80
2018-10-03T18:55:24.490Z,13.80
2018-10-03T18:57:52.396Z,13.70
2018-10-03T19:00:20.318Z,13.70
2018-10-03T19:02:48.272Z,13.70
2018-10-03T19:05:16.083Z,13.70
2018-10-03T19:07:44.041Z,13.60
2018-10-03T19:10:11.912Z,13.60
2018-10-03T19:12:40.145Z,13.60
2018-10-03T19:15:08.033Z,13.60
2018-10-03T19:17:36.341Z,13.50
2018-10-03T19:20:04.584Z,13.50
2018-10-03T19:22:32.510Z,13.30
2018-10-03T19:25:00.346Z,13.30
2018-10-03T19:27:28.285Z,13.30
2018-10-03T19:29:56.149Z,13.20
2018-10-03T19:32:24.268Z,13.10
2018-10-03T19:34:52.053Z,13.20
2018-10-03T19:37:20.045Z,13.10
2018-10-03T19:39:47.859Z,13.10
2018-10-03T19:42:15.725Z,13.00
2018-10-03T19:44:43.491Z,13.00
2018-10-03T19:47:11.200Z,13.00
2018-10-03T19:49:38.874Z,13.00
2018-10-03T19:52:06.751Z,12.90
2018-10-03T19:54:34.637Z,12.90
2018-10-03T19:57:02.326Z,12.80
2018-10-03T19:59:30.331Z,12.80
2018-10-03T20:01:58.056Z,12.80
2018-10-03T20:04:25.890Z,12.90
2018-10-03T20:06:53.799Z,12.80
2018-10-03T20:09:22.159Z,12.90
2018-10-03T20:11:49.907Z,12.80
2018-10-03T20:14:18.592Z,12.80
2018-10-03T20:16:46.591Z,12.70
2018-10-03T20:19:14.424Z,12.70
2018-10-03T20:21:42.649Z,12.70
2018-10-03T20:24:10.459Z,12.70
2018-10-03T20:26:38.554Z,12.70
2018-10-03T20:29:06.685Z,12.70
2018-10-03T20:31:34.548Z,12.70
2018-10-03T20:34:02.618Z,12.70
2018-10-03T20:36:30.949Z,12.60
2018-10-03T20:38:58.684Z,12.50
2018-10-03T20:41:26.638Z,12.50
2018-10-03T20:43:54.956Z,12.50
2018-10-03T20:46:22.908Z,12.40
2018-10-03T20:48:50.626Z,12.40
2018-10-03T20:51:18.801Z,12.30
2018-10-03T20:53:46.716Z,12.30
2018-10-03T20:56:14.417Z,12.30
2018-10-03T20:58:42.345Z,12.30
2018-10-03T21:01:10.096Z,12.30
2018-10-03T21:03:38.141Z,12.30
2018-10-03T21:06:06.236Z,12.30
2018-10-03T21:08:34.211Z,12.30
2018-10-03T21:11:02.274Z,12.20
2018-10-03T21:13:30.224Z,12.10
2018-10-03T21:15:58.127Z,12.10
2018-10-03T21:18:26.004Z,12.10
2018-10-03T21:20:53.982Z,12.00
2018-10-03T21:23:21.852Z,12.10
2018-10-03T21:25:49.596Z,12.10
2018-10-03T21:28:17.540Z,12.00
2018-10-03T21:30:45.415Z,12.00
2018-10-03T21:33:13.201Z,12.00
2018-10-03T21:35:41.136Z,12.00
2018-10-03T21:38:08.934Z,11.90
2018-10-03T21:40:36.867Z,12.00
2018-10-03T21:43:04.762Z,11.90
2018-10-03T21:45:32.676Z,11.90
2018-10-03T21:48:00.419Z,11.90
2018-10-03T21:50:28.274Z,11.90
2018-10-03T21:52:56.377Z,11.80
2018-10-03T21:55:24.332Z,11.80
2018-10-03T21:57:52.243Z,11.80
2018-10-03T22:00:20.419Z,11.70
2018-10-03T22:02:48.320Z,11.70
2018-10-03T22:05:16.226Z,11.70
2018-10-03T22:07:44.241Z,11.70
2018-10-03T22:10:12.385Z,11.60
2018-10-03T22:12:40.423Z,11.60
2018-10-03T22:15:08.402Z,11.60
2018-10-03T22:17:38.366Z,11.50
2018-10-03T22:20:06.697Z,11.50
2018-10-03T22:22:34.476Z,11.50
2018-10-03T22:25:03.246Z,11.50
2018-10-03T22:27:31.064Z,11.50
2018-10-03T22:29:59.070Z,11.50
2018-10-03T22:32:27.018Z,11.50
2018-10-03T22:34:54.945Z,11.40
2018-10-03T22:37:22.713Z,11.40
2018-10-03T22:39:50.432Z,11.40
2018-10-03T22:42:18.327Z,11.40
2018-10-03T22:44:46.176Z,11.40
2018-10-03T22:47:14.066Z,11.40
2018-10-03T22:49:41.843Z,11.40
2018-10-03T22:52:09.619Z,11.30
2018-10-03T22:54:37.481Z,11.30
2018-10-03T22:57:05.269Z,11.30
2018-10-03T22:59:33.108Z,11.20
2018-10-03T23:02:00.968Z,11.20
2018-10-03T23:04:28.746Z,11.20
2018-10-03T23:06:56.545Z,11.20
2018-10-03T23:09:24.526Z,11.20
2018-10-03T23:11:52.374Z,11.20
2018-10-03T23:14:20.146Z,11.10
2018-10-03T23:16:47.936Z,11.10
2018-10-03T23:19:15.831Z,11.10
2018-10-03T23:21:43.578Z,11.10
2018-10-03T23:24:11.332Z,11.10
2018-10-03T23:26:39.133Z,11.10
2018-10-03T23:29:06.987Z,11.10
2018-10-03T23:31:34.747Z,11.00
2018-10-03T23:34:02.619Z,11.00
2018-10-03T23:36:30.368Z,11.00
2018-10-03T23:38:58.078Z,11.00
2018-10-03T23:41:25.838Z,10.90
2018-10-03T23:43:53.652Z,10.90
2018-10-03T23:46:21.412Z,10.90
2018-10-03T23:48:49.170Z,10.80
2018-10-03T23:51:16.869Z,10.80
2018-10-03T23:53:44.646Z,10.80
2018-10-03T23:56:12.395Z,10.80
2018-10-03T23:58:40.167Z,10.70
